< < Back
Terminal Aerodrome Forecast


Current Version              Previous Versions:   1  2  3  4  5  6  7  8  9  

Terminal Aerodrome Forecast

148
FTUS42 KJAX 180500
TAFJAX
TAF
KJAX 180532Z 1806/1906 00000KT P6SM BKN250
     FM181400 30004KT P6SM BKN250=



Latest METAR

448
SAUS80 KWBC 180900
MTRJAX
METAR KJAX 180856Z 00000KT 10SM FEW250 05/04 A3012 RMK AO2 SLP199
T00500044 58007


USA.gov is the U.S. government's official web portal to all federal, state and local government web resources and services.